sensor_id;sensor_type;location;lat;lon;timestamp;P1;durP1;ratioP1;P2;durP2;ratioP2
36725;SDS011;44936;52.086;5.150;2023-03-21T00:00:58;7.07;;;3.13;;
36725;SDS011;44936;52.086;5.150;2023-03-21T00:03:28;8.63;;;3.20;;
36725;SDS011;44936;52.086;5.150;2023-03-21T00:05:57;7.45;;;3.42;;
36725;SDS011;44936;52.086;5.150;2023-03-21T00:08:24;6.20;;;3.08;;
36725;SDS011;44936;52.086;5.150;2023-03-21T00:10:54;7.60;;;3.05;;
36725;SDS011;44936;52.086;5.150;2023-03-21T00:13:24;7.22;;;3.03;;
36725;SDS011;44936;52.086;5.150;2023-03-21T00:16:08;7.13;;;2.90;;
36725;SDS011;44936;52.086;5.150;2023-03-21T00:18:39;6.93;;;3.13;;
36725;SDS011;44936;52.086;5.150;2023-03-21T00:21:05;8.13;;;3.20;;
36725;SDS011;44936;52.086;5.150;2023-03-21T00:23:33;8.25;;;3.30;;
36725;SDS011;44936;52.086;5.150;2023-03-21T00:25:59;6.78;;;2.75;;
36725;SDS011;44936;52.086;5.150;2023-03-21T00:28:26;7.95;;;3.40;;
36725;SDS011;44936;52.086;5.150;2023-03-21T00:30:57;7.15;;;3.03;;
36725;SDS011;44936;52.086;5.150;2023-03-21T00:33:23;7.10;;;2.67;;
36725;SDS011;44936;52.086;5.150;2023-03-21T00:35:52;8.25;;;3.25;;
36725;SDS011;44936;52.086;5.150;2023-03-21T00:38:23;10.05;;;3.28;;
36725;SDS011;44936;52.086;5.150;2023-03-21T00:40:52;6.85;;;2.95;;
36725;SDS011;44936;52.086;5.150;2023-03-21T00:43:17;9.32;;;2.95;;
36725;SDS011;44936;52.086;5.150;2023-03-21T00:45:47;6.15;;;2.85;;
36725;SDS011;44936;52.086;5.150;2023-03-21T00:48:16;6.90;;;3.08;;
36725;SDS011;44936;52.086;5.150;2023-03-21T00:50:50;7.78;;;2.80;;
36725;SDS011;44936;52.086;5.150;2023-03-21T00:53:18;8.30;;;3.55;;
36725;SDS011;44936;52.086;5.150;2023-03-21T00:55:44;7.30;;;3.25;;
36725;SDS011;44936;52.086;5.150;2023-03-21T00:58:10;6.53;;;2.70;;
36725;SDS011;44936;52.086;5.150;2023-03-21T01:00:38;6.85;;;2.92;;
36725;SDS011;44936;52.086;5.150;2023-03-21T01:03:05;9.77;;;3.47;;
36725;SDS011;44936;52.086;5.150;2023-03-21T01:05:37;7.25;;;3.10;;
36725;SDS011;44936;52.086;5.150;2023-03-21T01:08:23;9.07;;;3.53;;
36725;SDS011;44936;52.086;5.150;2023-03-21T01:10:50;8.45;;;3.55;;
36725;SDS011;44936;52.086;5.150;2023-03-21T01:13:17;11.90;;;4.35;;
36725;SDS011;44936;52.086;5.150;2023-03-21T01:15:51;9.35;;;3.88;;
36725;SDS011;44936;52.086;5.150;2023-03-21T01:18:24;9.80;;;4.00;;
36725;SDS011;44936;52.086;5.150;2023-03-21T01:20:53;8.93;;;3.50;;
36725;SDS011;44936;52.086;5.150;2023-03-21T01:23:24;8.77;;;3.92;;
36725;SDS011;44936;52.086;5.150;2023-03-21T01:25:55;9.07;;;4.25;;
36725;SDS011;44936;52.086;5.150;2023-03-21T01:28:21;11.30;;;4.28;;
36725;SDS011;44936;52.086;5.150;2023-03-21T01:30:50;10.43;;;4.32;;
36725;SDS011;44936;52.086;5.150;2023-03-21T01:33:17;12.00;;;4.78;;
36725;SDS011;44936;52.086;5.150;2023-03-21T01:35:46;10.93;;;4.22;;
36725;SDS011;44936;52.086;5.150;2023-03-21T01:38:11;9.23;;;3.95;;
36725;SDS011;44936;52.086;5.150;2023-03-21T01:40:38;11.18;;;4.50;;
36725;SDS011;44936;52.086;5.150;2023-03-21T01:43:16;8.15;;;3.80;;
36725;SDS011;44936;52.086;5.150;2023-03-21T01:48:48;10.23;;;4.67;;
36725;SDS011;44936;52.086;5.150;2023-03-21T01:51:21;9.00;;;3.80;;
36725;SDS011;44936;52.086;5.150;2023-03-21T01:53:52;12.35;;;4.28;;
36725;SDS011;44936;52.086;5.150;2023-03-21T01:56:52;12.40;;;4.40;;
36725;SDS011;44936;52.086;5.150;2023-03-21T01:59:26;12.75;;;4.18;;
36725;SDS011;44936;52.086;5.150;2023-03-21T02:01:58;14.95;;;4.57;;
36725;SDS011;44936;52.086;5.150;2023-03-21T02:04:35;12.55;;;4.47;;
36725;SDS011;44936;52.086;5.150;2023-03-21T02:07:04;11.15;;;4.05;;
36725;SDS011;44936;52.086;5.150;2023-03-21T02:09:36;9.27;;;3.47;;
36725;SDS011;44936;52.086;5.150;2023-03-21T02:12:04;11.25;;;4.10;;
36725;SDS011;44936;52.086;5.150;2023-03-21T02:14:33;12.18;;;3.85;;
36725;SDS011;44936;52.086;5.150;2023-03-21T02:34:30;14.27;;;4.25;;
36725;SDS011;44936;52.086;5.150;2023-03-21T02:37:09;15.07;;;4.22;;
36725;SDS011;44936;52.086;5.150;2023-03-21T02:42:38;16.73;;;4.50;;
36725;SDS011;44936;52.086;5.150;2023-03-21T02:45:25;10.45;;;3.83;;
36725;SDS011;44936;52.086;5.150;2023-03-21T02:47:58;12.13;;;3.90;;
36725;SDS011;44936;52.086;5.150;2023-03-21T02:50:31;14.02;;;4.13;;
36725;SDS011;44936;52.086;5.150;2023-03-21T02:53:03;11.43;;;4.03;;
36725;SDS011;44936;52.086;5.150;2023-03-21T02:55:35;14.50;;;4.60;;
36725;SDS011;44936;52.086;5.150;2023-03-21T02:58:02;12.50;;;4.30;;
36725;SDS011;44936;52.086;5.150;2023-03-21T03:00:31;11.90;;;3.92;;
36725;SDS011;44936;52.086;5.150;2023-03-21T03:03:00;12.07;;;4.07;;
36725;SDS011;44936;52.086;5.150;2023-03-21T03:05:29;13.45;;;4.32;;
36725;SDS011;44936;52.086;5.150;2023-03-21T03:19:27;8.00;;;3.25;;
36725;SDS011;44936;52.086;5.150;2023-03-21T03:22:00;14.40;;;4.10;;
36725;SDS011;44936;52.086;5.150;2023-03-21T03:27:24;9.23;;;3.53;;
36725;SDS011;44936;52.086;5.150;2023-03-21T03:29:53;11.45;;;3.45;;
36725;SDS011;44936;52.086;5.150;2023-03-21T03:32:30;8.52;;;3.45;;
36725;SDS011;44936;52.086;5.150;2023-03-21T03:35:02;7.55;;;3.35;;
36725;SDS011;44936;52.086;5.150;2023-03-21T03:37:32;6.90;;;2.88;;
36725;SDS011;44936;52.086;5.150;2023-03-21T03:40:05;6.30;;;3.00;;
36725;SDS011;44936;52.086;5.150;2023-03-21T03:42:42;9.45;;;3.00;;
36725;SDS011;44936;52.086;5.150;2023-03-21T03:45:15;7.00;;;2.97;;
36725;SDS011;44936;52.086;5.150;2023-03-21T03:50:27;5.00;;;2.40;;
36725;SDS011;44936;52.086;5.150;2023-03-21T03:55:45;9.13;;;2.60;;
36725;SDS011;44936;52.086;5.150;2023-03-21T03:58:16;7.22;;;2.72;;
36725;SDS011;44936;52.086;5.150;2023-03-21T04:00:44;6.40;;;2.50;;
36725;SDS011;44936;52.086;5.150;2023-03-21T04:03:10;14.55;;;2.90;;
36725;SDS011;44936;52.086;5.150;2023-03-21T04:05:39;5.32;;;2.50;;
36725;SDS011;44936;52.086;5.150;2023-03-21T04:08:09;7.22;;;2.53;;
36725;SDS011;44936;52.086;5.150;2023-03-21T04:10:35;6.15;;;2.78;;
36725;SDS011;44936;52.086;5.150;2023-03-21T04:13:03;9.02;;;3.05;;
36725;SDS011;44936;52.086;5.150;2023-03-21T04:15:35;7.00;;;2.67;;
36725;SDS011;44936;52.086;5.150;2023-03-21T04:18:02;7.65;;;2.78;;
36725;SDS011;44936;52.086;5.150;2023-03-21T04:20:27;10.30;;;2.97;;
36725;SDS011;44936;52.086;5.150;2023-03-21T04:22:53;8.85;;;3.00;;
36725;SDS011;44936;52.086;5.150;2023-03-21T04:25:18;8.40;;;3.22;;
36725;SDS011;44936;52.086;5.150;2023-03-21T04:27:44;10.57;;;3.70;;
36725;SDS011;44936;52.086;5.150;2023-03-21T04:30:10;9.15;;;3.55;;
36725;SDS011;44936;52.086;5.150;2023-03-21T04:32:37;14.40;;;4.00;;
36725;SDS011;44936;52.086;5.150;2023-03-21T04:35:04;10.32;;;3.83;;
36725;SDS011;44936;52.086;5.150;2023-03-21T04:37:32;9.00;;;3.83;;
36725;SDS011;44936;52.086;5.150;2023-03-21T04:40:00;10.30;;;3.85;;
36725;SDS011;44936;52.086;5.150;2023-03-21T04:42:31;13.88;;;4.30;;
36725;SDS011;44936;52.086;5.150;2023-03-21T04:45:00;11.65;;;4.20;;
36725;SDS011;44936;52.086;5.150;2023-03-21T04:47:27;10.02;;;3.97;;
36725;SDS011;44936;52.086;5.150;2023-03-21T04:49:57;11.65;;;3.90;;
36725;SDS011;44936;52.086;5.150;2023-03-21T04:52:23;12.73;;;3.97;;
36725;SDS011;44936;52.086;5.150;2023-03-21T04:54:48;11.35;;;3.63;;
36725;SDS011;44936;52.086;5.150;2023-03-21T04:57:14;14.55;;;3.92;;
36725;SDS011;44936;52.086;5.150;2023-03-21T04:59:39;12.25;;;4.00;;
36725;SDS011;44936;52.086;5.150;2023-03-21T05:02:05;10.15;;;3.80;;
36725;SDS011;44936;52.086;5.150;2023-03-21T05:04:31;8.85;;;3.63;;
36725;SDS011;44936;52.086;5.150;2023-03-21T05:06:57;12.43;;;3.55;;
36725;SDS011;44936;52.086;5.150;2023-03-21T05:09:23;9.88;;;3.22;;
36725;SDS011;44936;52.086;5.150;2023-03-21T05:11:49;9.15;;;3.03;;
36725;SDS011;44936;52.086;5.150;2023-03-21T05:14:19;9.13;;;3.22;;
36725;SDS011;44936;52.086;5.150;2023-03-21T05:16:46;9.57;;;2.95;;
36725;SDS011;44936;52.086;5.150;2023-03-21T05:19:17;8.32;;;2.95;;
36725;SDS011;44936;52.086;5.150;2023-03-21T05:21:47;8.00;;;3.08;;
36725;SDS011;44936;52.086;5.150;2023-03-21T05:24:17;7.72;;;2.95;;
36725;SDS011;44936;52.086;5.150;2023-03-21T05:26:44;10.13;;;3.13;;
36725;SDS011;44936;52.086;5.150;2023-03-21T05:29:15;8.40;;;2.67;;
36725;SDS011;44936;52.086;5.150;2023-03-21T05:31:43;12.43;;;2.83;;
36725;SDS011;44936;52.086;5.150;2023-03-21T05:34:09;9.68;;;2.97;;
36725;SDS011;44936;52.086;5.150;2023-03-21T05:36:38;9.15;;;2.83;;
36725;SDS011;44936;52.086;5.150;2023-03-21T05:39:05;7.72;;;3.13;;
36725;SDS011;44936;52.086;5.150;2023-03-21T05:41:31;5.53;;;2.58;;
36725;SDS011;44936;52.086;5.150;2023-03-21T05:43:56;8.20;;;2.70;;
36725;SDS011;44936;52.086;5.150;2023-03-21T05:46:21;7.57;;;2.85;;
36725;SDS011;44936;52.086;5.150;2023-03-21T05:48:47;11.32;;;3.30;;
36725;SDS011;44936;52.086;5.150;2023-03-21T05:51:12;6.95;;;2.45;;
36725;SDS011;44936;52.086;5.150;2023-03-21T05:53:42;6.43;;;2.95;;
36725;SDS011;44936;52.086;5.150;2023-03-21T05:56:08;11.50;;;3.10;;
36725;SDS011;44936;52.086;5.150;2023-03-21T05:58:37;9.02;;;2.92;;
36725;SDS011;44936;52.086;5.150;2023-03-21T06:01:02;7.28;;;2.80;;
36725;SDS011;44936;52.086;5.150;2023-03-21T06:03:31;12.07;;;2.85;;
36725;SDS011;44936;52.086;5.150;2023-03-21T06:05:59;8.65;;;2.67;;
36725;SDS011;44936;52.086;5.150;2023-03-21T06:08:27;9.80;;;3.20;;
36725;SDS011;44936;52.086;5.150;2023-03-21T06:10:54;8.60;;;2.88;;
36725;SDS011;44936;52.086;5.150;2023-03-21T06:13:19;10.10;;;3.17;;
36725;SDS011;44936;52.086;5.150;2023-03-21T06:15:45;7.85;;;3.10;;
36725;SDS011;44936;52.086;5.150;2023-03-21T06:18:11;7.20;;;3.00;;
36725;SDS011;44936;52.086;5.150;2023-03-21T06:20:36;8.38;;;2.58;;
36725;SDS011;44936;52.086;5.150;2023-03-21T06:23:02;9.10;;;2.67;;
36725;SDS011;44936;52.086;5.150;2023-03-21T06:25:27;8.40;;;2.67;;
36725;SDS011;44936;52.086;5.150;2023-03-21T06:27:53;7.50;;;3.03;;
36725;SDS011;44936;52.086;5.150;2023-03-21T06:30:19;7.88;;;2.78;;
36725;SDS011;44936;52.086;5.150;2023-03-21T06:32:45;7.63;;;2.38;;
36725;SDS011;44936;52.086;5.150;2023-03-21T06:35:13;10.25;;;2.95;;
36725;SDS011;44936;52.086;5.150;2023-03-21T06:37:42;6.40;;;2.42;;
36725;SDS011;44936;52.086;5.150;2023-03-21T06:40:09;6.53;;;2.63;;
36725;SDS011;44936;52.086;5.150;2023-03-21T06:42:35;8.55;;;2.83;;
36725;SDS011;44936;52.086;5.150;2023-03-21T06:45:00;7.05;;;2.28;;
36725;SDS011;44936;52.086;5.150;2023-03-21T06:47:27;9.27;;;2.42;;
36725;SDS011;44936;52.086;5.150;2023-03-21T06:49:52;9.55;;;2.38;;
36725;SDS011;44936;52.086;5.150;2023-03-21T06:52:20;10.45;;;2.80;;
36725;SDS011;44936;52.086;5.150;2023-03-21T06:54:46;5.60;;;2.33;;
36725;SDS011;44936;52.086;5.150;2023-03-21T06:57:11;6.32;;;2.38;;
36725;SDS011;44936;52.086;5.150;2023-03-21T06:59:37;9.77;;;2.95;;
36725;SDS011;44936;52.086;5.150;2023-03-21T07:02:04;7.28;;;2.17;;
36725;SDS011;44936;52.086;5.150;2023-03-21T07:04:30;7.45;;;2.47;;
36725;SDS011;44936;52.086;5.150;2023-03-21T07:06:55;6.43;;;2.35;;
36725;SDS011;44936;52.086;5.150;2023-03-21T07:09:21;6.45;;;2.22;;
36725;SDS011;44936;52.086;5.150;2023-03-21T07:11:48;9.50;;;2.67;;
36725;SDS011;44936;52.086;5.150;2023-03-21T07:14:23;7.03;;;2.33;;
36725;SDS011;44936;52.086;5.150;2023-03-21T07:16:50;6.68;;;2.40;;
36725;SDS011;44936;52.086;5.150;2023-03-21T07:19:15;11.55;;;2.53;;
36725;SDS011;44936;52.086;5.150;2023-03-21T07:21:41;10.60;;;2.83;;
36725;SDS011;44936;52.086;5.150;2023-03-21T07:24:06;4.22;;;1.88;;
36725;SDS011;44936;52.086;5.150;2023-03-21T07:26:31;6.75;;;2.35;;
36725;SDS011;44936;52.086;5.150;2023-03-21T07:28:57;8.82;;;2.38;;
36725;SDS011;44936;52.086;5.150;2023-03-21T07:31:22;12.45;;;2.50;;
36725;SDS011;44936;52.086;5.150;2023-03-21T07:33:54;8.15;;;2.22;;
36725;SDS011;44936;52.086;5.150;2023-03-21T07:36:19;5.03;;;1.98;;
36725;SDS011;44936;52.086;5.150;2023-03-21T07:38:45;4.18;;;2.10;;
36725;SDS011;44936;52.086;5.150;2023-03-21T07:41:12;8.77;;;2.45;;
36725;SDS011;44936;52.086;5.150;2023-03-21T07:43:38;4.57;;;1.92;;
36725;SDS011;44936;52.086;5.150;2023-03-21T07:46:07;9.10;;;2.58;;
36725;SDS011;44936;52.086;5.150;2023-03-21T07:48:32;6.35;;;2.50;;
36725;SDS011;44936;52.086;5.150;2023-03-21T07:50:58;5.50;;;2.00;;
36725;SDS011;44936;52.086;5.150;2023-03-21T07:53:26;8.18;;;2.28;;
36725;SDS011;44936;52.086;5.150;2023-03-21T07:55:52;7.82;;;2.17;;
36725;SDS011;44936;52.086;5.150;2023-03-21T07:58:20;4.43;;;2.03;;
36725;SDS011;44936;52.086;5.150;2023-03-21T08:00:50;7.93;;;2.20;;
36725;SDS011;44936;52.086;5.150;2023-03-21T08:03:15;4.45;;;1.92;;
36725;SDS011;44936;52.086;5.150;2023-03-21T08:05:41;4.95;;;1.90;;
36725;SDS011;44936;52.086;5.150;2023-03-21T08:08:08;6.00;;;2.17;;
36725;SDS011;44936;52.086;5.150;2023-03-21T08:10:34;7.68;;;2.22;;
36725;SDS011;44936;52.086;5.150;2023-03-21T08:13:03;7.18;;;2.30;;
36725;SDS011;44936;52.086;5.150;2023-03-21T08:15:29;4.85;;;2.25;;
36725;SDS011;44936;52.086;5.150;2023-03-21T08:17:55;5.30;;;2.15;;
36725;SDS011;44936;52.086;5.150;2023-03-21T08:20:26;8.43;;;2.05;;
36725;SDS011;44936;52.086;5.150;2023-03-21T08:22:54;3.38;;;1.73;;
36725;SDS011;44936;52.086;5.150;2023-03-21T08:25:20;6.35;;;1.85;;
36725;SDS011;44936;52.086;5.150;2023-03-21T08:27:47;5.00;;;1.98;;
36725;SDS011;44936;52.086;5.150;2023-03-21T08:30:14;8.77;;;2.15;;
36725;SDS011;44936;52.086;5.150;2023-03-21T08:32:44;6.53;;;2.15;;
36725;SDS011;44936;52.086;5.150;2023-03-21T08:35:11;4.45;;;1.58;;
36725;SDS011;44936;52.086;5.150;2023-03-21T08:37:40;5.80;;;1.98;;
36725;SDS011;44936;52.086;5.150;2023-03-21T08:40:11;9.27;;;2.00;;
36725;SDS011;44936;52.086;5.150;2023-03-21T08:42:40;5.07;;;2.03;;
36725;SDS011;44936;52.086;5.150;2023-03-21T08:45:06;4.70;;;1.98;;
36725;SDS011;44936;52.086;5.150;2023-03-21T08:47:32;7.25;;;1.90;;
36725;SDS011;44936;52.086;5.150;2023-03-21T08:50:01;8.55;;;1.98;;
36725;SDS011;44936;52.086;5.150;2023-03-21T08:52:31;3.88;;;2.05;;
36725;SDS011;44936;52.086;5.150;2023-03-21T08:54:59;5.03;;;1.80;;
36725;SDS011;44936;52.086;5.150;2023-03-21T08:57:26;3.47;;;1.60;;
36725;SDS011;44936;52.086;5.150;2023-03-21T08:59:52;4.22;;;1.80;;
36725;SDS011;44936;52.086;5.150;2023-03-21T09:02:19;4.18;;;1.50;;
36725;SDS011;44936;52.086;5.150;2023-03-21T09:04:44;6.50;;;2.10;;
36725;SDS011;44936;52.086;5.150;2023-03-21T09:07:10;3.95;;;1.52;;
36725;SDS011;44936;52.086;5.150;2023-03-21T09:09:38;6.45;;;1.75;;
36725;SDS011;44936;52.086;5.150;2023-03-21T09:12:03;5.35;;;1.73;;
36725;SDS011;44936;52.086;5.150;2023-03-21T09:14:29;3.47;;;1.60;;
36725;SDS011;44936;52.086;5.150;2023-03-21T09:16:55;3.58;;;1.35;;
36725;SDS011;44936;52.086;5.150;2023-03-21T09:19:20;4.05;;;1.85;;
36725;SDS011;44936;52.086;5.150;2023-03-21T09:21:46;5.72;;;1.77;;
36725;SDS011;44936;52.086;5.150;2023-03-21T09:24:12;10.02;;;1.85;;
36725;SDS011;44936;52.086;5.150;2023-03-21T09:26:39;5.18;;;1.52;;
36725;SDS011;44936;52.086;5.150;2023-03-21T09:29:08;3.00;;;1.65;;
36725;SDS011;44936;52.086;5.150;2023-03-21T09:31:37;6.38;;;1.95;;
36725;SDS011;44936;52.086;5.150;2023-03-21T09:34:04;4.15;;;1.50;;
36725;SDS011;44936;52.086;5.150;2023-03-21T09:36:31;4.72;;;1.90;;
36725;SDS011;44936;52.086;5.150;2023-03-21T09:39:00;4.95;;;1.85;;
36725;SDS011;44936;52.086;5.150;2023-03-21T09:44:45;4.80;;;1.83;;
36725;SDS011;44936;52.086;5.150;2023-03-21T09:47:24;3.33;;;1.35;;
36725;SDS011;44936;52.086;5.150;2023-03-21T09:52:41;6.68;;;2.10;;
36725;SDS011;44936;52.086;5.150;2023-03-21T09:55:30;5.85;;;1.85;;
36725;SDS011;44936;52.086;5.150;2023-03-21T09:58:04;3.72;;;1.70;;
36725;SDS011;44936;52.086;5.150;2023-03-21T10:00:33;7.13;;;2.40;;
36725;SDS011;44936;52.086;5.150;2023-03-21T10:05:39;8.30;;;1.75;;
36725;SDS011;44936;52.086;5.150;2023-03-21T10:08:11;8.60;;;2.20;;
36725;SDS011;44936;52.086;5.150;2023-03-21T10:13:21;6.25;;;2.20;;
36725;SDS011;44936;52.086;5.150;2023-03-21T10:16:01;11.18;;;2.00;;
36725;SDS011;44936;52.086;5.150;2023-03-21T10:18:44;5.55;;;2.00;;
36725;SDS011;44936;52.086;5.150;2023-03-21T10:21:15;7.25;;;1.65;;
36725;SDS011;44936;52.086;5.150;2023-03-21T10:23:47;3.00;;;1.83;;
36725;SDS011;44936;52.086;5.150;2023-03-21T10:26:16;8.32;;;2.10;;
36725;SDS011;44936;52.086;5.150;2023-03-21T10:28:44;3.40;;;1.85;;
36725;SDS011;44936;52.086;5.150;2023-03-21T10:31:13;6.43;;;2.03;;
36725;SDS011;44936;52.086;5.150;2023-03-21T10:33:43;5.38;;;1.48;;
36725;SDS011;44936;52.086;5.150;2023-03-21T10:38:53;5.32;;;2.10;;
36725;SDS011;44936;52.086;5.150;2023-03-21T10:41:22;5.20;;;1.77;;
36725;SDS011;44936;52.086;5.150;2023-03-21T10:44:06;5.75;;;1.55;;
36725;SDS011;44936;52.086;5.150;2023-03-21T10:49:20;3.20;;;1.80;;
36725;SDS011;44936;52.086;5.150;2023-03-21T10:51:50;8.55;;;2.05;;
36725;SDS011;44936;52.086;5.150;2023-03-21T10:54:21;4.10;;;2.00;;
36725;SDS011;44936;52.086;5.150;2023-03-21T10:56:57;4.53;;;2.05;;
36725;SDS011;44936;52.086;5.150;2023-03-21T10:59:39;8.50;;;2.05;;
36725;SDS011;44936;52.086;5.150;2023-03-21T11:02:17;4.00;;;2.10;;
36725;SDS011;44936;52.086;5.150;2023-03-21T11:05:24;5.93;;;2.30;;
36725;SDS011;44936;52.086;5.150;2023-03-21T11:07:59;6.32;;;2.03;;
36725;SDS011;44936;52.086;5.150;2023-03-21T11:10:36;5.55;;;1.95;;
36725;SDS011;44936;52.086;5.150;2023-03-21T11:13:16;6.55;;;1.85;;
36725;SDS011;44936;52.086;5.150;2023-03-21T11:18:13;4.63;;;1.93;;
36725;SDS011;44936;52.086;5.150;2023-03-21T11:20:47;4.60;;;1.77;;
36725;SDS011;44936;52.086;5.150;2023-03-21T11:23:18;5.97;;;1.90;;
36725;SDS011;44936;52.086;5.150;2023-03-21T11:28:17;3.80;;;1.85;;
36725;SDS011;44936;52.086;5.150;2023-03-21T11:30:53;8.65;;;2.20;;
36725;SDS011;44936;52.086;5.150;2023-03-21T11:33:22;5.35;;;2.05;;
36725;SDS011;44936;52.086;5.150;2023-03-21T11:35:59;5.85;;;1.70;;
36725;SDS011;44936;52.086;5.150;2023-03-21T11:38:38;5.00;;;1.80;;
36725;SDS011;44936;52.086;5.150;2023-03-21T11:41:05;5.85;;;2.60;;
36725;SDS011;44936;52.086;5.150;2023-03-21T11:43:34;6.35;;;1.80;;
36725;SDS011;44936;52.086;5.150;2023-03-21T11:48:39;3.50;;;1.80;;
36725;SDS011;44936;52.086;5.150;2023-03-21T11:51:23;5.07;;;2.00;;
36725;SDS011;44936;52.086;5.150;2023-03-21T11:57:04;5.07;;;1.88;;
36725;SDS011;44936;52.086;5.150;2023-03-21T12:05:29;5.53;;;2.30;;
36725;SDS011;44936;52.086;5.150;2023-03-21T12:10:31;6.20;;;2.60;;
36725;SDS011;44936;52.086;5.150;2023-03-21T12:13:18;7.90;;;2.78;;
36725;SDS011;44936;52.086;5.150;2023-03-21T12:24:17;7.35;;;2.88;;
36725;SDS011;44936;52.086;5.150;2023-03-21T12:26:59;8.50;;;2.60;;
36725;SDS011;44936;52.086;5.150;2023-03-21T12:38:22;7.57;;;2.75;;
36725;SDS011;44936;52.086;5.150;2023-03-21T12:43:52;7.72;;;2.80;;
36725;SDS011;44936;52.086;5.150;2023-03-21T12:52:03;6.07;;;2.58;;
36725;SDS011;44936;52.086;5.150;2023-03-21T12:55:23;4.40;;;2.35;;
36725;SDS011;44936;52.086;5.150;2023-03-21T12:57:44;5.05;;;2.40;;
36725;SDS011;44936;52.086;5.150;2023-03-21T13:00:20;4.75;;;2.50;;
36725;SDS011;44936;52.086;5.150;2023-03-21T13:05:25;9.50;;;2.95;;
36725;SDS011;44936;52.086;5.150;2023-03-21T13:08:54;4.75;;;2.00;;
36725;SDS011;44936;52.086;5.150;2023-03-21T13:11:09;6.18;;;2.08;;
36725;SDS011;44936;52.086;5.150;2023-03-21T13:16:55;6.03;;;2.47;;
36725;SDS011;44936;52.086;5.150;2023-03-21T13:22:27;6.38;;;2.25;;
36725;SDS011;44936;52.086;5.150;2023-03-21T13:25:03;5.22;;;2.22;;
36725;SDS011;44936;52.086;5.150;2023-03-21T13:27:50;6.72;;;2.30;;
36725;SDS011;44936;52.086;5.150;2023-03-21T13:30:28;10.90;;;2.63;;
36725;SDS011;44936;52.086;5.150;2023-03-21T13:33:15;3.83;;;2.00;;
36725;SDS011;44936;52.086;5.150;2023-03-21T13:36:03;5.53;;;2.30;;
36725;SDS011;44936;52.086;5.150;2023-03-21T13:38:33;11.48;;;2.90;;
36725;SDS011;44936;52.086;5.150;2023-03-21T13:41:06;5.72;;;2.78;;
36725;SDS011;44936;52.086;5.150;2023-03-21T13:59:09;7.53;;;2.65;;
36725;SDS011;44936;52.086;5.150;2023-03-21T14:04:30;6.50;;;2.55;;
36725;SDS011;44936;52.086;5.150;2023-03-21T14:07:06;6.07;;;2.95;;
36725;SDS011;44936;52.086;5.150;2023-03-21T14:09:37;4.93;;;2.60;;
36725;SDS011;44936;52.086;5.150;2023-03-21T14:12:06;5.45;;;2.60;;
36725;SDS011;44936;52.086;5.150;2023-03-21T14:14:42;7.05;;;2.72;;
36725;SDS011;44936;52.086;5.150;2023-03-21T14:17:32;7.80;;;3.38;;
36725;SDS011;44936;52.086;5.150;2023-03-21T14:20:12;7.45;;;2.63;;
36725;SDS011;44936;52.086;5.150;2023-03-21T14:22:46;7.53;;;3.00;;
36725;SDS011;44936;52.086;5.150;2023-03-21T14:25:15;7.85;;;3.00;;
36725;SDS011;44936;52.086;5.150;2023-03-21T14:27:54;6.55;;;3.22;;
36725;SDS011;44936;52.086;5.150;2023-03-21T14:30:26;6.68;;;2.60;;
36725;SDS011;44936;52.086;5.150;2023-03-21T14:32:57;8.98;;;3.22;;
36725;SDS011;44936;52.086;5.150;2023-03-21T14:35:27;6.95;;;2.72;;
36725;SDS011;44936;52.086;5.150;2023-03-21T14:37:55;8.25;;;2.97;;
36725;SDS011;44936;52.086;5.150;2023-03-21T14:40:26;6.80;;;2.95;;
36725;SDS011;44936;52.086;5.150;2023-03-21T14:42:53;8.05;;;3.20;;
36725;SDS011;44936;52.086;5.150;2023-03-21T14:45:20;9.02;;;3.70;;
36725;SDS011;44936;52.086;5.150;2023-03-21T14:50:30;6.32;;;2.80;;
36725;SDS011;44936;52.086;5.150;2023-03-21T14:53:00;5.63;;;2.70;;
36725;SDS011;44936;52.086;5.150;2023-03-21T14:55:26;7.18;;;3.08;;
36725;SDS011;44936;52.086;5.150;2023-03-21T14:57:53;8.02;;;3.35;;
36725;SDS011;44936;52.086;5.150;2023-03-21T15:00:24;8.02;;;3.13;;
36725;SDS011;44936;52.086;5.150;2023-03-21T15:02:53;10.75;;;3.22;;
36725;SDS011;44936;52.086;5.150;2023-03-21T15:05:24;6.07;;;3.03;;
36725;SDS011;44936;52.086;5.150;2023-03-21T15:10:26;7.50;;;2.67;;
36725;SDS011;44936;52.086;5.150;2023-03-21T15:12:54;7.55;;;2.83;;
36725;SDS011;44936;52.086;5.150;2023-03-21T15:15:37;6.35;;;2.90;;
36725;SDS011;44936;52.086;5.150;2023-03-21T15:18:04;9.13;;;2.53;;
36725;SDS011;44936;52.086;5.150;2023-03-21T15:20:38;5.28;;;2.58;;
36725;SDS011;44936;52.086;5.150;2023-03-21T15:23:10;4.15;;;2.40;;
36725;SDS011;44936;52.086;5.150;2023-03-21T15:25:46;6.38;;;2.47;;
36725;SDS011;44936;52.086;5.150;2023-03-21T15:28:11;8.30;;;2.67;;
36725;SDS011;44936;52.086;5.150;2023-03-21T15:30:39;5.53;;;2.65;;
36725;SDS011;44936;52.086;5.150;2023-03-21T15:33:15;5.30;;;2.13;;
36725;SDS011;44936;52.086;5.150;2023-03-21T15:35:43;5.35;;;2.45;;
36725;SDS011;44936;52.086;5.150;2023-03-21T15:38:20;6.47;;;2.22;;
36725;SDS011;44936;52.086;5.150;2023-03-21T15:41:38;5.38;;;2.50;;
36725;SDS011;44936;52.086;5.150;2023-03-21T15:46:39;8.82;;;2.50;;
36725;SDS011;44936;52.086;5.150;2023-03-21T15:51:53;8.55;;;2.50;;
36725;SDS011;44936;52.086;5.150;2023-03-21T15:54:21;4.88;;;2.50;;
36725;SDS011;44936;52.086;5.150;2023-03-21T15:57:13;4.70;;;2.45;;
36725;SDS011;44936;52.086;5.150;2023-03-21T16:00:13;5.70;;;2.55;;
36725;SDS011;44936;52.086;5.150;2023-03-21T16:02:57;6.35;;;2.83;;
36725;SDS011;44936;52.086;5.150;2023-03-21T16:05:32;9.60;;;2.67;;
36725;SDS011;44936;52.086;5.150;2023-03-21T16:08:03;5.57;;;2.60;;
36725;SDS011;44936;52.086;5.150;2023-03-21T16:10:40;3.85;;;2.22;;
36725;SDS011;44936;52.086;5.150;2023-03-21T16:13:05;3.63;;;2.17;;
36725;SDS011;44936;52.086;5.150;2023-03-21T16:15:31;5.43;;;2.17;;
36725;SDS011;44936;52.086;5.150;2023-03-21T16:17:58;5.38;;;2.22;;
36725;SDS011;44936;52.086;5.150;2023-03-21T16:20:31;4.10;;;2.00;;
36725;SDS011;44936;52.086;5.150;2023-03-21T16:22:59;4.63;;;2.00;;
36725;SDS011;44936;52.086;5.150;2023-03-21T16:25:30;6.00;;;2.25;;
36725;SDS011;44936;52.086;5.150;2023-03-21T16:27:56;5.28;;;2.08;;
36725;SDS011;44936;52.086;5.150;2023-03-21T16:30:22;3.08;;;1.73;;
36725;SDS011;44936;52.086;5.150;2023-03-21T16:32:48;4.25;;;1.73;;
36725;SDS011;44936;52.086;5.150;2023-03-21T16:35:16;4.45;;;1.63;;
36725;SDS011;44936;52.086;5.150;2023-03-21T16:37:48;3.70;;;1.58;;
36725;SDS011;44936;52.086;5.150;2023-03-21T16:42:45;2.13;;;1.50;;
36725;SDS011;44936;52.086;5.150;2023-03-21T16:45:10;3.50;;;1.67;;
36725;SDS011;44936;52.086;5.150;2023-03-21T16:47:39;7.40;;;2.00;;
36725;SDS011;44936;52.086;5.150;2023-03-21T16:50:11;5.00;;;1.83;;
36725;SDS011;44936;52.086;5.150;2023-03-21T16:52:49;3.65;;;1.67;;
36725;SDS011;44936;52.086;5.150;2023-03-21T16:55:16;2.72;;;1.65;;
36725;SDS011;44936;52.086;5.150;2023-03-21T16:57:42;3.72;;;1.60;;
36725;SDS011;44936;52.086;5.150;2023-03-21T17:00:21;2.95;;;1.42;;
36725;SDS011;44936;52.086;5.150;2023-03-21T17:02:52;4.83;;;1.67;;
36725;SDS011;44936;52.086;5.150;2023-03-21T17:05:22;3.22;;;1.50;;
36725;SDS011;44936;52.086;5.150;2023-03-21T17:07:50;3.08;;;1.90;;
36725;SDS011;44936;52.086;5.150;2023-03-21T17:10:20;3.67;;;1.70;;
36725;SDS011;44936;52.086;5.150;2023-03-21T17:12:47;5.65;;;1.85;;
36725;SDS011;44936;52.086;5.150;2023-03-21T17:15:13;3.67;;;2.15;;
36725;SDS011;44936;52.086;5.150;2023-03-21T17:17:52;3.63;;;1.95;;
36725;SDS011;44936;52.086;5.150;2023-03-21T17:22:52;7.85;;;3.15;;
36725;SDS011;44936;52.086;5.150;2023-03-21T17:25:18;6.47;;;2.80;;
36725;SDS011;44936;52.086;5.150;2023-03-21T17:27:44;5.70;;;2.15;;
36725;SDS011;44936;52.086;5.150;2023-03-21T17:30:16;10.23;;;2.17;;
36725;SDS011;44936;52.086;5.150;2023-03-21T17:32:46;7.78;;;2.42;;